createdAt,value
2022-08-28T00:00:12.773Z,99.90
2022-08-28T00:02:40.966Z,99.90
2022-08-28T00:05:33.073Z,99.90
2022-08-28T00:08:00.947Z,99.90
2022-08-28T00:10:28.918Z,99.90
2022-08-28T00:12:57.417Z,99.90
2022-08-28T00:15:31.805Z,99.90
2022-08-28T00:18:00.329Z,99.90
2022-08-28T00:20:28.262Z,99.90
2022-08-28T00:22:55.886Z,99.90
2022-08-28T00:25:25.952Z,99.90
2022-08-28T00:27:59.517Z,99.90
2022-08-28T00:30:33.515Z,99.90
2022-08-28T00:33:05.023Z,99.90
2022-08-28T00:35:32.687Z,99.90
2022-08-28T00:38:00.377Z,99.90
2022-08-28T00:40:33.790Z,99.90
2022-08-28T00:43:05.685Z,99.90
2022-08-28T00:45:39.309Z,99.90
2022-08-28T00:48:07.937Z,99.90
2022-08-28T00:51:05.167Z,99.90
2022-08-28T00:53:33.033Z,99.90
2022-08-28T00:56:07.009Z,99.90
2022-08-28T00:58:43.255Z,99.90
2022-08-28T01:01:11.230Z,99.90
2022-08-28T01:03:38.782Z,99.90
2022-08-28T01:06:08.067Z,99.90
2022-08-28T01:08:38.857Z,99.90
2022-08-28T01:11:07.388Z,99.90
2022-08-28T01:13:38.071Z,99.90
2022-08-28T01:16:07.542Z,99.90
2022-08-28T01:18:35.645Z,99.90
2022-08-28T01:21:10.162Z,99.90
2022-08-28T01:24:09.969Z,99.90
2022-08-28T01:26:38.557Z,99.90
2022-08-28T01:29:07.198Z,99.90
2022-08-28T01:31:35.953Z,99.90
2022-08-28T01:34:04.388Z,99.90
2022-08-28T01:36:31.911Z,99.90
2022-08-28T01:39:07.195Z,99.90
2022-08-28T01:41:35.454Z,99.90
2022-08-28T01:44:02.857Z,99.90
2022-08-28T01:46:31.654Z,99.90
2022-08-28T01:49:00.310Z,99.90
2022-08-28T01:51:28.163Z,99.90
2022-08-28T01:54:02.498Z,99.90
2022-08-28T01:56:29.907Z,99.90
2022-08-28T01:58:57.234Z,99.90
2022-08-28T02:01:24.631Z,99.90
2022-08-28T02:03:53.067Z,99.90
2022-08-28T02:06:20.627Z,99.90
2022-08-28T02:08:49.783Z,99.90
2022-08-28T02:11:17.372Z,99.90
2022-08-28T02:13:44.764Z,99.90
2022-08-28T02:16:12.839Z,99.90
2022-08-28T02:18:40.330Z,99.90
2022-08-28T02:21:08.845Z,99.90
2022-08-28T02:23:39.652Z,99.90
2022-08-28T02:26:07.866Z,99.90
2022-08-28T02:28:36.767Z,99.90
2022-08-28T02:31:05.917Z,99.90
2022-08-28T02:33:33.663Z,99.90
2022-08-28T02:36:01.030Z,99.90
2022-08-28T02:38:30.543Z,99.90
2022-08-28T02:40:59.609Z,99.90
2022-08-28T02:43:32.268Z,99.90
2022-08-28T02:45:59.767Z,99.90
2022-08-28T02:48:32.606Z,99.90
2022-08-28T02:51:02.910Z,99.90
2022-08-28T02:53:31.259Z,99.90
2022-08-28T02:56:00.511Z,99.90
2022-08-28T02:58:27.958Z,99.90
2022-08-28T03:00:56.886Z,99.90
2022-08-28T03:03:28.826Z,99.90
2022-08-28T03:05:56.137Z,99.90
2022-08-28T03:08:27.157Z,99.90
2022-08-28T03:10:55.012Z,99.90
2022-08-28T03:13:26.556Z,99.90
2022-08-28T03:15:56.214Z,99.90
2022-08-28T03:18:25.727Z,99.90
2022-08-28T03:20:55.490Z,99.90
2022-08-28T03:23:26.304Z,99.90
2022-08-28T03:25:56.575Z,99.90
2022-08-28T03:28:25.798Z,99.90
2022-08-28T03:30:54.121Z,99.90
2022-08-28T03:33:21.807Z,99.90
2022-08-28T03:35:49.274Z,99.90
2022-08-28T03:38:17.718Z,99.90
2022-08-28T03:40:46.823Z,99.90
2022-08-28T03:43:17.949Z,99.90
2022-08-28T03:46:03.357Z,99.90
2022-08-28T03:48:36.324Z,99.90
2022-08-28T03:51:13.520Z,99.90
2022-08-28T03:53:42.784Z,99.90
2022-08-28T03:56:13.707Z,99.90
2022-08-28T03:58:42.027Z,99.90
2022-08-28T04:01:10.097Z,99.90
2022-08-28T04:03:37.578Z,99.90
2022-08-28T04:06:05.150Z,99.90
2022-08-28T04:08:32.620Z,99.90
2022-08-28T04:11:00.929Z,99.90
2022-08-28T04:13:29.478Z,99.90
2022-08-28T04:16:05.051Z,99.90
2022-08-28T04:18:35.493Z,99.90
2022-08-28T04:21:07.858Z,99.90
2022-08-28T04:23:38.159Z,99.90
2022-08-28T04:26:08.003Z,99.90
2022-08-28T04:28:35.813Z,99.90
2022-08-28T04:31:03.982Z,99.90
2022-08-28T04:33:31.626Z,99.90
2022-08-28T04:36:03.370Z,99.90
2022-08-28T04:38:31.202Z,99.90
2022-08-28T04:40:58.899Z,99.90
2022-08-28T04:43:26.374Z,99.90
2022-08-28T04:45:53.739Z,99.90
2022-08-28T04:48:21.215Z,99.90
2022-08-28T04:50:49.792Z,99.90
2022-08-28T04:53:19.989Z,99.90
2022-08-28T04:55:55.070Z,99.90
2022-08-28T04:58:23.808Z,99.90
2022-08-28T05:00:53.207Z,99.90
2022-08-28T05:03:21.386Z,99.90
2022-08-28T05:05:51.939Z,99.90
2022-08-28T05:08:21.757Z,99.90
2022-08-28T05:10:50.301Z,99.90
2022-08-28T05:13:19.187Z,99.90
2022-08-28T05:15:49.869Z,99.90
2022-08-28T05:18:19.491Z,99.90
2022-08-28T05:20:48.606Z,99.90
2022-08-28T05:23:18.021Z,99.90
2022-08-28T05:25:47.893Z,99.90
2022-08-28T05:28:17.107Z,99.90
2022-08-28T05:30:45.095Z,99.90
2022-08-28T05:33:14.598Z,99.90
2022-08-28T05:35:45.363Z,99.90
2022-08-28T05:38:15.205Z,99.90
2022-08-28T05:40:46.210Z,99.90
2022-08-28T05:43:16.164Z,99.90
2022-08-28T05:45:43.875Z,99.90
2022-08-28T05:48:11.964Z,99.90
2022-08-28T05:50:43.787Z,99.90
2022-08-28T05:53:16.985Z,99.90
2022-08-28T05:55:44.749Z,99.90
2022-08-28T05:58:32.284Z,99.90
2022-08-28T06:01:12.234Z,99.90
2022-08-28T06:03:42.680Z,99.90
2022-08-28T06:06:11.600Z,99.90
2022-08-28T06:08:58.288Z,99.90
2022-08-28T06:11:30.554Z,99.90
2022-08-28T06:14:01.830Z,99.90
2022-08-28T06:16:32.236Z,99.90
2022-08-28T06:19:00.614Z,99.90
2022-08-28T06:21:29.025Z,99.90
2022-08-28T06:23:57.041Z,99.90
2022-08-28T06:26:24.482Z,99.90
2022-08-28T06:28:53.050Z,99.90
2022-08-28T06:31:25.016Z,99.90
2022-08-28T06:33:54.565Z,99.90
2022-08-28T06:36:22.631Z,99.90
2022-08-28T06:38:50.259Z,99.90
2022-08-28T06:41:19.217Z,99.90
2022-08-28T06:43:46.605Z,99.90
2022-08-28T06:46:14.230Z,99.90
2022-08-28T06:48:41.700Z,99.90
2022-08-28T06:51:11.439Z,99.90
2022-08-28T06:53:40.525Z,99.90
2022-08-28T06:56:26.765Z,99.90
2022-08-28T06:58:59.321Z,99.90
2022-08-28T07:01:35.607Z,99.90
2022-08-28T07:04:14.410Z,99.90
2022-08-28T07:06:46.886Z,99.90
2022-08-28T07:09:14.770Z,99.90
2022-08-28T07:11:46.636Z,99.90
2022-08-28T07:14:14.080Z,99.90
2022-08-28T07:16:41.888Z,99.90
2022-08-28T07:19:11.968Z,99.90
2022-08-28T07:21:41.864Z,99.90
2022-08-28T07:24:11.242Z,99.90
2022-08-28T07:26:40.992Z,99.90
2022-08-28T07:29:10.422Z,99.90
2022-08-28T07:31:41.632Z,99.90
2022-08-28T07:34:11.750Z,99.90
2022-08-28T07:36:39.755Z,99.90
2022-08-28T07:39:08.892Z,99.90
2022-08-28T07:41:39.134Z,99.90
2022-08-28T07:44:27.086Z,99.90
2022-08-28T07:46:56.839Z,99.90
2022-08-28T07:49:25.490Z,99.90
2022-08-28T07:51:54.373Z,99.90
2022-08-28T07:54:23.346Z,99.90
2022-08-28T07:56:51.930Z,99.90
2022-08-28T07:59:20.426Z,99.90
2022-08-28T08:01:51.507Z,99.90
2022-08-28T08:04:20.419Z,99.90
2022-08-28T08:06:48.217Z,99.90
2022-08-28T08:09:18.037Z,99.90
2022-08-28T08:11:46.774Z,99.90
2022-08-28T08:14:15.388Z,99.90
2022-08-28T08:16:44.463Z,99.90
2022-08-28T08:19:14.019Z,99.90
2022-08-28T08:21:43.892Z,98.60
2022-08-28T08:24:19.903Z,98.60
2022-08-28T08:26:58.796Z,94.90
2022-08-28T08:29:31.274Z,91.70
2022-08-28T08:32:05.383Z,90.80
2022-08-28T08:34:36.559Z,90.10
2022-08-28T08:37:05.632Z,88.70
2022-08-28T08:39:34.178Z,88.80
2022-08-28T08:42:03.994Z,87.80
2022-08-28T08:44:41.609Z,87.80
2022-08-28T08:47:22.357Z,87.30
2022-08-28T08:49:52.325Z,84.70
2022-08-28T08:53:16.935Z,84.40
2022-08-28T08:55:52.733Z,79.30
2022-08-28T08:58:28.026Z,78.90
2022-08-28T09:01:11.597Z,72.70
2022-08-28T09:03:59.483Z,72.20
2022-08-28T09:06:44.924Z,71.80
2022-08-28T09:09:29.285Z,70.80
2022-08-28T09:11:57.403Z,68.70
2022-08-28T09:14:36.438Z,68.00
2022-08-28T09:17:06.699Z,67.10
2022-08-28T09:19:34.158Z,68.10
2022-08-28T09:22:01.894Z,67.90
2022-08-28T09:24:33.516Z,69.60
2022-08-28T09:27:11.063Z,68.20
2022-08-28T09:29:43.293Z,70.50
2022-08-28T09:32:27.699Z,69.90
2022-08-28T09:35:06.342Z,76.60
2022-08-28T09:37:35.881Z,80.00
2022-08-28T09:40:51.868Z,75.60
2022-08-28T09:43:28.025Z,72.60
2022-08-28T09:46:20.869Z,70.30
2022-08-28T09:48:52.447Z,74.60
2022-08-28T09:51:22.893Z,74.00
2022-08-28T09:53:56.403Z,72.30
2022-08-28T09:56:33.513Z,68.90
2022-08-28T09:59:06.641Z,67.30
2022-08-28T10:01:47.955Z,66.80
2022-08-28T10:04:35.507Z,66.30
2022-08-28T10:07:17.272Z,65.90
2022-08-28T10:09:56.415Z,64.10
2022-08-28T10:12:33.688Z,64.00
2022-08-28T10:15:26.200Z,63.30
2022-08-28T10:18:11.734Z,61.00
2022-08-28T10:21:10.492Z,60.90
2022-08-28T10:24:05.337Z,59.90
2022-08-28T10:26:45.313Z,59.70
2022-08-28T10:29:18.614Z,58.40
2022-08-28T10:32:00.951Z,60.20
2022-08-28T10:34:28.293Z,62.50
2022-08-28T10:37:07.169Z,61.90
2022-08-28T10:39:47.241Z,61.10
2022-08-28T10:42:22.707Z,60.80
2022-08-28T10:45:10.446Z,66.10
2022-08-28T10:47:42.208Z,72.90
2022-08-28T10:50:17.270Z,78.00
2022-08-28T10:53:10.317Z,83.20
2022-08-28T10:56:13.150Z,85.60
2022-08-28T10:58:41.198Z,87.80
2022-08-28T11:01:13.260Z,90.60
2022-08-28T11:03:48.645Z,90.50
2022-08-28T11:06:28.710Z,91.40
2022-08-28T11:09:22.624Z,91.90
2022-08-28T11:11:53.029Z,91.20
2022-08-28T11:14:28.534Z,91.30
2022-08-28T11:17:09.362Z,91.70
2022-08-28T11:20:09.130Z,92.00
2022-08-28T11:22:53.074Z,92.00
2022-08-28T11:25:50.365Z,91.40
2022-08-28T11:28:40.412Z,92.50
2022-08-28T11:31:07.860Z,91.40
2022-08-28T11:33:35.258Z,92.50
2022-08-28T11:36:03.075Z,92.80
2022-08-28T11:38:42.576Z,91.30
2022-08-28T11:41:14.752Z,92.20
2022-08-28T11:43:44.675Z,91.70
2022-08-28T11:46:32.692Z,91.20
2022-08-28T11:49:05.266Z,91.10
2022-08-28T11:51:55.383Z,91.30
2022-08-28T11:54:51.137Z,91.60
2022-08-28T11:57:26.010Z,92.30
2022-08-28T12:00:05.447Z,92.40
2022-08-28T12:02:43.089Z,92.10
2022-08-28T12:05:16.485Z,92.60
2022-08-28T12:07:49.286Z,91.80
2022-08-28T12:10:22.468Z,91.20
2022-08-28T12:12:52.559Z,91.70
2022-08-28T12:15:29.636Z,92.00
2022-08-28T12:17:57.228Z,91.50
2022-08-28T12:20:57.735Z,92.00
2022-08-28T12:23:37.100Z,92.10
2022-08-28T12:26:13.097Z,92.30
2022-08-28T12:29:04.529Z,92.30
2022-08-28T12:32:11.710Z,92.60
2022-08-28T12:34:57.609Z,92.30
2022-08-28T12:37:28.118Z,92.70
2022-08-28T12:39:58.261Z,92.40
2022-08-28T12:42:32.031Z,92.00
2022-08-28T12:45:08.788Z,92.00
2022-08-28T12:47:37.907Z,92.10
2022-08-28T12:50:27.018Z,92.80
2022-08-28T12:52:57.502Z,91.10
2022-08-28T12:55:25.858Z,91.20
2022-08-28T12:57:54.039Z,91.90
2022-08-28T13:00:30.202Z,92.10
2022-08-28T13:02:57.615Z,92.50
2022-08-28T13:05:39.754Z,92.80
2022-08-28T13:08:12.575Z,92.70
2022-08-28T13:10:49.579Z,93.80
2022-08-28T13:13:22.529Z,92.70
2022-08-28T13:15:55.242Z,92.90
2022-08-28T13:18:43.872Z,92.90
2022-08-28T13:21:17.410Z,92.80
2022-08-28T13:24:00.123Z,91.80
2022-08-28T13:26:33.097Z,91.80
2022-08-28T13:29:19.934Z,91.50
2022-08-28T13:31:56.261Z,91.90
2022-08-28T13:34:27.401Z,92.30
2022-08-28T13:37:14.739Z,92.60
2022-08-28T13:39:47.985Z,92.30
2022-08-28T13:42:18.036Z,92.10
2022-08-28T13:44:53.777Z,91.90
2022-08-28T13:47:21.141Z,92.20
2022-08-28T13:49:49.080Z,91.40
2022-08-28T13:52:17.014Z,91.60
2022-08-28T13:54:45.422Z,91.60
2022-08-28T13:57:13.708Z,91.30
2022-08-28T13:59:41.564Z,91.40
2022-08-28T14:02:31.409Z,92.20
2022-08-28T14:04:59.139Z,92.20
2022-08-28T14:07:26.563Z,92.20
2022-08-28T14:09:56.409Z,92.20
2022-08-28T14:12:30.702Z,91.70
2022-08-28T14:15:02.168Z,92.10
2022-08-28T14:17:29.654Z,91.90
2022-08-28T14:19:57.448Z,91.90
2022-08-28T14:22:24.798Z,92.20
2022-08-28T14:24:52.225Z,91.80
2022-08-28T14:27:19.915Z,91.90
2022-08-28T14:29:48.970Z,91.90
2022-08-28T14:32:16.354Z,91.80
2022-08-28T14:34:43.993Z,91.60
2022-08-28T14:37:11.458Z,91.90
2022-08-28T14:39:38.798Z,91.90
2022-08-28T14:42:13.333Z,92.40
2022-08-28T14:44:40.794Z,92.10
2022-08-28T14:47:08.677Z,92.00
2022-08-28T14:49:36.155Z,92.20
2022-08-28T14:52:04.613Z,92.80
2022-08-28T14:54:32.237Z,92.60
2022-08-28T14:56:59.658Z,92.60
2022-08-28T14:59:30.971Z,92.50
2022-08-28T15:02:00.286Z,92.70
2022-08-28T15:04:34.487Z,92.90
2022-08-28T15:07:05.436Z,92.80
2022-08-28T15:09:36.834Z,92.50
2022-08-28T15:12:05.039Z,93.20
2022-08-28T15:14:32.438Z,93.00
2022-08-28T15:16:59.922Z,93.00
2022-08-28T15:19:27.562Z,92.40
2022-08-28T15:21:56.058Z,92.40
2022-08-28T15:24:26.770Z,92.30
2022-08-28T15:26:54.601Z,92.70
2022-08-28T15:29:22.206Z,92.70
2022-08-28T15:31:50.876Z,93.00
2022-08-28T15:34:21.070Z,92.80
2022-08-28T15:36:55.289Z,92.90
2022-08-28T15:39:44.037Z,93.10
2022-08-28T15:42:12.017Z,92.70
2022-08-28T15:44:39.441Z,92.70
2022-08-28T15:47:07.441Z,92.60
2022-08-28T15:49:46.622Z,92.10
2022-08-28T15:52:18.563Z,92.00
2022-08-28T15:54:47.000Z,92.00
2022-08-28T15:57:15.042Z,92.20
2022-08-28T15:59:48.663Z,92.30
2022-08-28T16:02:20.106Z,92.30
2022-08-28T16:04:47.911Z,92.50
2022-08-28T16:07:15.639Z,92.70
2022-08-28T16:09:42.911Z,92.40
2022-08-28T16:12:10.348Z,92.40
2022-08-28T16:14:37.698Z,92.60
2022-08-28T16:17:05.694Z,94.40
2022-08-28T16:19:42.129Z,93.40
2022-08-28T16:22:11.150Z,95.30
2022-08-28T16:24:38.915Z,95.70
2022-08-28T16:27:08.659Z,99.50
2022-08-28T16:29:38.589Z,96.40
2022-08-28T16:32:06.960Z,95.80
2022-08-28T16:34:35.291Z,97.60
2022-08-28T16:37:04.456Z,96.60
2022-08-28T16:39:31.907Z,97.60
2022-08-28T16:41:59.424Z,97.00
2022-08-28T16:44:26.822Z,95.90
2022-08-28T16:46:55.394Z,96.50
2022-08-28T16:49:23.685Z,96.10
2022-08-28T16:51:51.169Z,96.30
2022-08-28T16:54:19.452Z,95.90
2022-08-28T16:56:47.051Z,95.90
2022-08-28T16:59:20.374Z,95.40
2022-08-28T17:01:52.942Z,95.30
2022-08-28T17:04:21.923Z,95.70
2022-08-28T17:06:49.573Z,95.50
2022-08-28T17:09:16.947Z,95.50
2022-08-28T17:11:52.386Z,95.90
2022-08-28T17:14:21.321Z,96.20
2022-08-28T17:16:49.466Z,96.50
2022-08-28T17:19:17.310Z,95.90
2022-08-28T17:22:03.100Z,96.20
2022-08-28T17:24:31.011Z,96.50
2022-08-28T17:27:00.929Z,96.90
2022-08-28T17:29:32.412Z,96.90
2022-08-28T17:31:59.739Z,96.90
2022-08-28T17:34:30.216Z,96.90
2022-08-28T17:36:57.946Z,97.10
2022-08-28T17:39:25.581Z,96.90
2022-08-28T17:41:53.088Z,97.50
2022-08-28T17:44:20.555Z,97.30
2022-08-28T17:46:48.012Z,97.70
2022-08-28T17:49:15.346Z,97.90
2022-08-28T17:51:44.459Z,97.70
2022-08-28T17:54:13.870Z,97.80
2022-08-28T17:56:41.590Z,98.00
2022-08-28T17:59:10.402Z,98.30
2022-08-28T18:01:38.598Z,98.50
2022-08-28T18:04:06.203Z,98.50
2022-08-28T18:06:33.695Z,98.70
2022-08-28T18:09:01.185Z,98.90
2022-08-28T18:11:29.011Z,99.20
2022-08-28T18:13:57.142Z,99.60
2022-08-28T18:16:28.878Z,99.90
2022-08-28T18:19:02.826Z,99.90
2022-08-28T18:21:31.059Z,99.90
2022-08-28T18:23:58.562Z,99.90
2022-08-28T18:26:26.285Z,99.90
2022-08-28T18:28:53.752Z,99.90
2022-08-28T18:31:21.187Z,99.90
2022-08-28T18:33:48.739Z,99.90
2022-08-28T18:36:16.777Z,99.90
2022-08-28T18:38:44.790Z,99.90
2022-08-28T18:41:12.358Z,99.90
2022-08-28T18:43:39.928Z,99.90
2022-08-28T18:46:09.640Z,99.90
2022-08-28T18:48:37.948Z,99.90
2022-08-28T18:51:07.696Z,99.90
2022-08-28T18:53:35.967Z,99.90
2022-08-28T18:56:04.509Z,99.90
2022-08-28T18:58:32.292Z,99.90
2022-08-28T19:01:02.187Z,99.90
2022-08-28T19:03:30.375Z,99.90
2022-08-28T19:05:57.908Z,99.90
2022-08-28T19:08:26.084Z,99.90
2022-08-28T19:10:54.069Z,99.90
2022-08-28T19:13:21.902Z,99.90
2022-08-28T19:15:52.564Z,99.90
2022-08-28T19:18:20.958Z,99.90
2022-08-28T19:20:48.677Z,99.90
2022-08-28T19:23:17.928Z,99.90
2022-08-28T19:25:46.688Z,99.90
2022-08-28T19:28:14.306Z,99.90
2022-08-28T19:30:42.107Z,99.90
2022-08-28T19:33:12.455Z,99.90
2022-08-28T19:35:39.762Z,99.90
2022-08-28T19:38:07.198Z,99.90
2022-08-28T19:40:34.719Z,99.90
2022-08-28T19:43:02.170Z,99.90
2022-08-28T19:45:33.073Z,99.90
2022-08-28T19:48:00.450Z,99.90
2022-08-28T19:50:27.911Z,99.90
2022-08-28T19:52:56.058Z,99.90
2022-08-28T19:55:25.813Z,99.90
2022-08-28T19:57:53.964Z,99.90
2022-08-28T20:00:26.423Z,99.90
2022-08-28T20:02:53.777Z,99.90
2022-08-28T20:05:22.178Z,99.90
2022-08-28T20:07:49.745Z,99.90
2022-08-28T20:10:18.404Z,99.90
2022-08-28T20:12:48.470Z,99.90
2022-08-28T20:15:18.845Z,99.90
2022-08-28T20:17:49.683Z,99.90
2022-08-28T20:20:24.550Z,99.90
2022-08-28T20:22:54.399Z,99.90
2022-08-28T20:25:22.075Z,99.90
2022-08-28T20:27:49.461Z,99.90
2022-08-28T20:30:17.851Z,99.90
2022-08-28T20:32:45.451Z,99.90
2022-08-28T20:35:13.453Z,99.90
2022-08-28T20:37:45.371Z,99.90
2022-08-28T20:40:17.090Z,99.90
2022-08-28T20:42:45.457Z,99.90
2022-08-28T20:45:15.083Z,99.90
2022-08-28T20:47:43.168Z,99.90
2022-08-28T20:50:11.499Z,99.90
2022-08-28T20:52:38.947Z,99.90
2022-08-28T20:55:07.943Z,99.90
2022-08-28T20:57:35.254Z,99.90
2022-08-28T21:00:05.813Z,99.90
2022-08-28T21:02:33.493Z,99.90
2022-08-28T21:05:01.026Z,99.90
2022-08-28T21:07:28.510Z,99.90
2022-08-28T21:10:06.696Z,99.90
2022-08-28T21:12:36.986Z,99.90
2022-08-28T21:15:06.459Z,99.90
2022-08-28T21:17:33.912Z,99.90
2022-08-28T21:20:04.906Z,99.90
2022-08-28T21:22:34.013Z,99.90
2022-08-28T21:25:05.647Z,99.90
2022-08-28T21:27:33.111Z,99.90
2022-08-28T21:30:01.465Z,99.90
2022-08-28T21:32:30.572Z,99.90
2022-08-28T21:34:58.356Z,99.90
2022-08-28T21:37:25.749Z,99.90
2022-08-28T21:39:53.910Z,99.90
2022-08-28T21:42:24.102Z,99.90
2022-08-28T21:44:52.266Z,99.90
2022-08-28T21:47:22.868Z,99.90
2022-08-28T21:49:51.546Z,99.90
2022-08-28T21:52:21.008Z,99.90
2022-08-28T21:54:48.948Z,99.90
2022-08-28T21:57:17.739Z,99.90
2022-08-28T21:59:45.046Z,99.90
2022-08-28T22:02:12.491Z,99.90
2022-08-28T22:04:39.889Z,99.90
2022-08-28T22:07:07.352Z,99.90
2022-08-28T22:09:34.680Z,99.90
2022-08-28T22:12:02.181Z,99.90
2022-08-28T22:14:29.550Z,99.90
2022-08-28T22:16:57.037Z,99.90
2022-08-28T22:19:24.470Z,99.90
2022-08-28T22:22:10.661Z,99.90
2022-08-28T22:24:37.989Z,99.90
2022-08-28T22:27:05.779Z,99.90
2022-08-28T22:29:36.505Z,99.90
2022-08-28T22:32:05.263Z,99.90
2022-08-28T22:34:39.844Z,99.90
2022-08-28T22:37:08.608Z,99.90
2022-08-28T22:39:35.900Z,99.90
2022-08-28T22:42:03.324Z,99.90
2022-08-28T22:44:31.138Z,99.90
2022-08-28T22:46:58.522Z,99.90
2022-08-28T22:49:26.288Z,99.90
2022-08-28T22:51:53.643Z,99.90
2022-08-28T22:54:20.974Z,99.90
2022-08-28T22:56:48.338Z,99.90
2022-08-28T22:59:15.934Z,99.90
2022-08-28T23:01:43.727Z,99.90
2022-08-28T23:04:11.442Z,99.90
2022-08-28T23:06:41.880Z,99.90
2022-08-28T23:09:09.238Z,99.90
2022-08-28T23:11:37.423Z,99.90
2022-08-28T23:14:05.804Z,99.90
2022-08-28T23:16:35.193Z,99.90
2022-08-28T23:19:13.316Z,99.90
2022-08-28T23:21:43.807Z,99.90
2022-08-28T23:24:16.081Z,99.90
2022-08-28T23:26:44.860Z,99.90
2022-08-28T23:29:12.923Z,99.90
2022-08-28T23:31:40.481Z,99.90
2022-08-28T23:34:07.944Z,99.90
2022-08-28T23:36:36.704Z,99.90
2022-08-28T23:39:04.829Z,99.90
2022-08-28T23:41:33.648Z,99.90
2022-08-28T23:44:03.192Z,99.90
2022-08-28T23:46:33.552Z,99.90
2022-08-28T23:49:00.885Z,99.90
2022-08-28T23:51:29.366Z,99.90
2022-08-28T23:53:57.165Z,99.90
2022-08-28T23:56:28.062Z,99.90
2022-08-28T23:58:55.921Z,99.90
